Time;durP1;ratioP1;P1;durP2;ratioP2;P2;SDS_P1;SDS_P2;PMS_P1;PMS_P2;Temp;Humidity;BMP_temperature;BMP_pressure;BME280_temperature;BME280_humidity;BME280_pressure;Samples;Min_cycle;Max_cycle;Signal;HPM_P1;HPM_P2
2021/11/08 00:00:12;;;;;;;18.23;12.88;;;;;22.20;100829.00;;;;2070305;28;20591;-48
2021/11/08 00:01:13;;;;;;;15.98;12.60;;;;;22.20;100825.00;;;;2069958;28;20787;-49
2021/11/08 00:02:14;;;;;;;18.13;14.13;;;;;22.20;100827.00;;;;2070041;28;20237;-46
2021/11/08 00:03:16;;;;;;;15.07;12.40;;;;;22.20;100822.00;;;;2070462;28;20252;-47
2021/11/08 00:04:17;;;;;;;17.05;13.05;;;;;22.20;100823.00;;;;2073897;28;20244;-47
2021/11/08 00:05:18;;;;;;;16.40;12.60;;;;;22.20;100823.00;;;;2078503;28;20231;-47
2021/11/08 00:06:19;;;;;;;19.60;12.10;;;;;22.10;100822.00;;;;2078766;28;20275;-47
2021/11/08 00:07:19;;;;;;;17.67;12.75;;;;;22.10;100822.00;;;;2078423;28;20292;-45
2021/11/08 00:08:21;;;;;;;16.03;11.97;;;;;22.20;100823.00;;;;2073282;28;20698;-47
2021/11/08 00:09:21;;;;;;;16.63;12.50;;;;;22.20;100819.00;;;;2069127;28;20206;-47
2021/11/08 00:10:28;;;;;;;17.60;12.10;;;;;22.10;100828.00;;;;2070324;28;20202;-47
2021/11/08 00:11:29;;;;;;;16.50;11.52;;;;;22.10;100829.00;;;;2070513;28;20242;-47
2021/11/08 00:12:29;;;;;;;14.57;11.07;;;;;22.10;100827.00;;;;2074565;28;21025;-46
2021/11/08 00:13:31;;;;;;;18.63;12.17;;;;;22.10;100825.00;;;;2078205;28;20217;-47
2021/11/08 00:14:31;;;;;;;14.48;10.93;;;;;22.10;100826.00;;;;2078440;28;20278;-46
2021/11/08 00:15:45;;;;;;;14.70;11.03;;;;;22.10;100839.00;;;;2078488;28;20213;-46
2021/11/08 00:18:06;;;;;;;15.77;11.30;;;;;22.10;100830.00;;;;2078206;28;20229;-45
2021/11/08 00:19:36;;;;;;;13.48;10.75;;;;;22.10;100825.00;;;;2077015;28;20236;-49
2021/11/08 00:20:32;;;;;;;15.75;10.70;;;;;22.10;100826.00;;;;2077271;28;20210;-47
2021/11/08 00:21:34;;;;;;;15.05;11.13;;;;;22.10;100823.00;;;;2077977;28;20220;-46
2021/11/08 00:22:37;;;;;;;13.85;10.45;;;;;22.10;100823.00;;;;2077021;28;20227;-46
2021/11/08 00:23:38;;;;;;;13.65;10.32;;;;;22.10;100832.00;;;;2077426;28;20221;-48
2021/11/08 00:24:40;;;;;;;13.23;10.77;;;;;22.10;100834.00;;;;2077515;28;20221;-48
2021/11/08 00:25:41;;;;;;;13.90;10.20;;;;;22.10;100838.00;;;;2077777;28;20210;-47
2021/11/08 00:26:42;;;;;;;12.55;9.60;;;;;22.10;100830.00;;;;2077609;28;20689;-47
2021/11/08 00:27:43;;;;;;;14.30;10.13;;;;;22.10;100833.00;;;;2077439;28;20240;-47
2021/11/08 00:28:44;;;;;;;13.60;10.00;;;;;22.10;100831.00;;;;2069988;28;20667;-47
2021/11/08 00:29:44;;;;;;;12.37;9.37;;;;;22.10;100823.00;;;;2069710;28;20458;-47
2021/11/08 00:30:45;;;;;;;15.40;9.67;;;;;22.10;100832.00;;;;2069315;28;20224;-47
2021/11/08 00:31:45;;;;;;;13.60;9.40;;;;;22.10;100820.00;;;;2069291;28;20210;-49
2021/11/08 00:32:46;;;;;;;14.23;9.00;;;;;22.10;100821.00;;;;2070173;28;20468;-47
2021/11/08 00:33:46;;;;;;;11.63;8.33;;;;;22.00;100835.00;;;;2070470;28;20260;-46
2021/11/08 00:34:46;;;;;;;10.87;8.90;;;;;22.00;100837.00;;;;2070441;28;20214;-46
2021/11/08 00:35:48;;;;;;;14.07;9.83;;;;;22.10;100826.00;;;;2070151;28;20206;-45
2021/11/08 00:36:50;;;;;;;13.73;9.25;;;;;22.00;100830.00;;;;2074727;28;20210;-48
2021/11/08 00:37:50;;;;;;;10.73;8.93;;;;;22.00;100832.00;;;;2078137;28;20275;-46
2021/11/08 00:38:51;;;;;;;14.20;9.50;;;;;22.00;100834.00;;;;2077735;28;20275;-46
2021/11/08 00:39:52;;;;;;;13.27;8.90;;;;;22.00;100832.00;;;;2077166;28;20655;-47
2021/11/08 00:40:53;;;;;;;11.93;8.70;;;;;22.00;100832.00;;;;2078433;28;20214;-47
2021/11/08 00:41:53;;;;;;;10.57;8.57;;;;;22.00;100827.00;;;;2078360;28;20551;-46
2021/11/08 00:42:53;;;;;;;11.10;8.70;;;;;22.00;100835.00;;;;2077116;28;20518;-47
2021/11/08 00:43:54;;;;;;;11.57;8.63;;;;;22.00;100831.00;;;;2078239;28;20221;-48
2021/11/08 00:44:56;;;;;;;14.43;8.47;;;;;22.00;100828.00;;;;2076157;28;20214;-47
2021/11/08 00:45:56;;;;;;;11.35;8.38;;;;;22.00;100835.00;;;;2077333;28;20225;-48
2021/11/08 00:46:57;;;;;;;11.97;8.20;;;;;22.00;100848.00;;;;2076911;28;20316;-47
2021/11/08 00:47:58;;;;;;;13.50;8.05;;;;;22.00;100839.00;;;;2071196;28;20231;-49
2021/11/08 00:48:58;;;;;;;13.47;7.40;;;;;22.00;100844.00;;;;2070873;28;20322;-48
2021/11/08 00:49:59;;;;;;;11.20;8.13;;;;;22.00;100846.00;;;;2071925;28;20573;-48
2021/11/08 00:50:59;;;;;;;11.33;8.03;;;;;22.00;100845.00;;;;2072009;28;20210;-48
2021/11/08 00:51:59;;;;;;;10.07;7.53;;;;;22.00;100847.00;;;;2071777;28;20631;-47
2021/11/08 00:53:00;;;;;;;12.20;7.90;;;;;22.00;100852.00;;;;2071639;28;20308;-48
2021/11/08 00:54:00;;;;;;;12.50;7.60;;;;;22.00;100839.00;;;;2071533;28;20304;-48
2021/11/08 00:55:01;;;;;;;10.70;7.80;;;;;22.00;100845.00;;;;2071850;28;20713;-46
2021/11/08 00:56:05;;;;;;;10.23;7.83;;;;;22.00;100837.00;;;;2071463;28;20245;-47
2021/11/08 00:57:09;;;;;;;10.75;8.20;;;;;22.00;100853.00;;;;2075555;28;20687;-46
2021/11/08 00:58:16;;;;;;;9.48;7.22;;;;;22.00;100843.00;;;;2075386;28;20213;-48
2021/11/08 00:59:18;;;;;;;12.00;8.30;;;;;22.00;100852.00;;;;2076724;28;20206;-48
2021/11/08 01:00:18;;;;;;;10.63;7.80;;;;;22.00;100849.00;;;;2079978;28;20213;-47
2021/11/08 01:01:21;;;;;;;13.73;7.97;;;;;22.00;100848.00;;;;2073542;28;20218;-47
2021/11/08 01:02:25;;;;;;;12.90;8.55;;;;;22.00;100836.00;;;;2071467;28;20597;-50
2021/11/08 01:03:26;;;;;;;11.93;7.60;;;;;21.90;100847.00;;;;2075645;28;20443;-48
2021/11/08 01:04:26;;;;;;;12.23;7.97;;;;;21.90;100856.00;;;;2079937;28;20213;-48
2021/11/08 01:05:27;;;;;;;11.97;7.50;;;;;22.00;100851.00;;;;2079976;28;20209;-46
2021/11/08 01:06:28;;;;;;;8.40;6.80;;;;;21.90;100844.00;;;;2079920;28;20209;-48
2021/11/08 01:07:29;;;;;;;9.80;7.03;;;;;21.90;100849.00;;;;2079903;28;20260;-47
2021/11/08 01:08:30;;;;;;;9.60;7.30;;;;;21.90;100848.00;;;;2078994;28;20218;-48
2021/11/08 01:09:30;;;;;;;11.18;7.68;;;;;21.90;100854.00;;;;2078016;28;20527;-47
2021/11/08 01:10:30;;;;;;;10.97;6.47;;;;;21.80;100851.00;;;;2079645;28;20224;-47
2021/11/08 01:11:31;;;;;;;9.40;7.03;;;;;21.90;100852.00;;;;2079619;28;20271;-47
2021/11/08 01:12:31;;;;;;;12.03;7.27;;;;;21.90;100855.00;;;;2079794;28;20217;-47
2021/11/08 01:13:32;;;;;;;10.53;7.30;;;;;21.90;100878.00;;;;2079567;28;20217;-47
2021/11/08 01:14:33;;;;;;;9.80;6.83;;;;;21.90;100863.00;;;;2079706;28;20828;-47
2021/11/08 01:15:33;;;;;;;11.20;6.97;;;;;21.90;100865.00;;;;2079805;28;20440;-48
2021/11/08 01:16:33;;;;;;;10.43;7.33;;;;;21.90;100868.00;;;;2080038;28;20260;-46
2021/11/08 01:17:34;;;;;;;10.40;6.80;;;;;21.90;100863.00;;;;2079930;28;20206;-47
2021/11/08 01:18:34;;;;;;;11.03;7.20;;;;;21.90;100864.00;;;;2079535;28;20723;-47
2021/11/08 01:19:34;;;;;;;10.10;6.67;;;;;21.90;100865.00;;;;2078376;28;20214;-46
2021/11/08 01:20:35;;;;;;;10.03;6.20;;;;;21.90;100859.00;;;;2079840;28;20383;-48
2021/11/08 01:21:36;;;;;;;10.35;6.50;;;;;21.90;100860.00;;;;2079714;28;20209;-46
2021/11/08 01:22:37;;;;;;;10.43;6.77;;;;;21.90;100861.00;;;;2079842;28;20325;-46
2021/11/08 01:23:37;;;;;;;10.45;6.95;;;;;21.90;100850.00;;;;2079678;28;20244;-47
2021/11/08 01:24:38;;;;;;;11.30;6.60;;;;;21.90;100856.00;;;;2072742;28;20209;-46
2021/11/08 01:25:39;;;;;;;9.23;6.47;;;;;21.90;100866.00;;;;2078913;28;20221;-46
2021/11/08 01:26:40;;;;;;;11.27;7.00;;;;;21.90;100870.00;;;;2075773;28;20210;-46
2021/11/08 01:27:43;;;;;;;8.10;6.10;;;;;21.90;100876.00;;;;2072432;28;20202;-47
2021/11/08 01:28:47;;;;;;;11.05;6.80;;;;;21.90;100878.00;;;;2071116;28;20805;-47
2021/11/08 01:29:48;;;;;;;10.65;6.65;;;;;21.90;100879.00;;;;2070474;28;20218;-47
2021/11/08 01:30:48;;;;;;;9.40;6.40;;;;;21.90;100870.00;;;;2077338;28;20649;-47
2021/11/08 01:31:49;;;;;;;9.17;6.70;;;;;21.90;100873.00;;;;2079863;28;20252;-46
2021/11/08 01:33:59;;;;;;;10.73;6.60;;;;;21.90;100874.00;;;;2079511;28;20504;-46
2021/11/08 01:34:59;;;;;;;10.37;6.87;;;;;21.80;100870.00;;;;2079863;28;20213;-48
2021/11/08 01:37:04;;;;;;;8.35;6.50;;;;;21.80;100871.00;;;;2079743;28;20206;-46
2021/11/08 01:38:13;;;;;;;8.63;5.90;;;;;21.90;100866.00;;;;2079579;28;20262;-46
2021/11/08 01:39:20;;;;;;;8.40;6.25;;;;;21.80;100874.00;;;;2078478;28;20232;-47
2021/11/08 01:40:20;;;;;;;8.05;5.65;;;;;21.80;100874.00;;;;2073238;28;20559;-46
2021/11/08 01:41:23;;;;;;;9.13;6.60;;;;;21.80;100876.00;;;;2071456;28;20301;-48
2021/11/08 01:42:23;;;;;;;7.15;5.43;;;;;21.80;100877.00;;;;2071536;28;20625;-46
2021/11/08 01:43:24;;;;;;;7.50;5.70;;;;;21.80;100874.00;;;;2071501;28;20218;-48
2021/11/08 01:44:26;;;;;;;10.30;6.33;;;;;21.80;100878.00;;;;2071543;28;20213;-46
2021/11/08 01:45:27;;;;;;;8.05;5.82;;;;;21.80;100879.00;;;;2071586;28;20949;-47
2021/11/08 01:46:27;;;;;;;9.10;5.97;;;;;21.80;100876.00;;;;2070857;28;20268;-51
2021/11/08 01:47:29;;;;;;;8.17;5.60;;;;;21.80;100881.00;;;;2071307;28;20220;-48
2021/11/08 01:48:29;;;;;;;10.32;6.07;;;;;21.80;100879.00;;;;2071299;28;20230;-48
2021/11/08 01:49:29;;;;;;;11.23;6.13;;;;;21.80;100880.00;;;;2070684;28;20214;-48
2021/11/08 01:50:30;;;;;;;7.20;5.63;;;;;21.80;100875.00;;;;2071470;28;20264;-47
2021/11/08 01:51:31;;;;;;;9.98;5.93;;;;;21.80;100878.00;;;;2071477;28;20255;-47
2021/11/08 01:52:32;;;;;;;8.60;5.13;;;;;21.80;100881.00;;;;2071088;28;20301;-47
2021/11/08 01:53:32;;;;;;;8.30;5.67;;;;;21.80;100874.00;;;;2071343;28;20214;-48
2021/11/08 01:54:32;;;;;;;9.70;6.30;;;;;21.80;100881.00;;;;2070951;28;20225;-48
2021/11/08 01:55:33;;;;;;;8.90;5.63;;;;;21.80;100873.00;;;;2071456;28;20210;-47
2021/11/08 01:56:34;;;;;;;8.77;5.57;;;;;21.80;100882.00;;;;2072117;28;20595;-49
2021/11/08 01:57:36;;;;;;;8.18;5.43;;;;;21.80;100874.00;;;;2072035;28;20214;-48
2021/11/08 01:58:37;;;;;;;7.65;5.30;;;;;21.80;100876.00;;;;2071041;28;20284;-47
2021/11/08 01:59:37;;;;;;;7.73;5.10;;;;;21.80;100882.00;;;;2069739;28;20210;-46
2021/11/08 02:00:37;;;;;;;7.30;4.90;;;;;21.80;100870.00;;;;2070795;28;21098;-47
2021/11/08 02:01:38;;;;;;;8.50;4.70;;;;;21.80;100881.00;;;;2072472;28;20214;-46
2021/11/08 02:02:38;;;;;;;10.90;5.70;;;;;21.80;100881.00;;;;2078828;28;20217;-48
2021/11/08 02:03:38;;;;;;;9.00;5.40;;;;;21.80;100876.00;;;;2078887;28;20218;-49
2021/11/08 02:04:39;;;;;;;9.97;6.27;;;;;21.80;100873.00;;;;2077144;28;20317;-48
2021/11/08 02:05:39;;;;;;;9.40;6.33;;;;;21.80;100873.00;;;;2072392;28;20272;-48
2021/11/08 02:06:40;;;;;;;9.03;5.70;;;;;21.80;100866.00;;;;2070840;28;20272;-47
2021/11/08 02:07:41;;;;;;;8.40;5.87;;;;;21.80;100871.00;;;;2070830;28;20222;-48
2021/11/08 02:08:41;;;;;;;9.98;5.70;;;;;21.80;100873.00;;;;2070401;28;20256;-48
2021/11/08 02:09:42;;;;;;;8.13;5.37;;;;;21.70;100874.00;;;;2069684;28;20207;-46
2021/11/08 02:10:42;;;;;;;8.60;5.97;;;;;21.80;100876.00;;;;2071043;28;20242;-47
2021/11/08 02:11:43;;;;;;;8.53;5.67;;;;;21.80;100875.00;;;;2070667;28;20600;-47
2021/11/08 02:12:44;;;;;;;7.07;5.07;;;;;21.80;100877.00;;;;2070344;28;20584;-47
2021/11/08 02:13:44;;;;;;;9.03;5.37;;;;;21.80;100880.00;;;;2070415;28;20985;-47
2021/11/08 02:14:44;;;;;;;10.20;5.70;;;;;21.70;100878.00;;;;2070318;28;20302;-46
2021/11/08 02:15:45;;;;;;;8.27;4.90;;;;;21.70;100878.00;;;;2070749;28;20314;-48
2021/11/08 02:16:45;;;;;;;8.93;5.10;;;;;21.70;100886.00;;;;2070732;28;20219;-48
2021/11/08 02:17:48;;;;;;;8.37;5.10;;;;;21.80;100874.00;;;;2070909;28;20628;-46
2021/11/08 02:18:48;;;;;;;9.50;5.25;;;;;21.70;100886.00;;;;2072352;28;20217;-49
2021/11/08 02:19:49;;;;;;;7.13;4.70;;;;;21.70;100878.00;;;;2078993;28;20580;-47
2021/11/08 02:20:50;;;;;;;9.07;5.23;;;;;21.70;100881.00;;;;2072898;28;20340;-48
2021/11/08 02:21:51;;;;;;;8.55;4.80;;;;;21.70;100880.00;;;;2071136;28;20214;-47
2021/11/08 02:22:52;;;;;;;7.63;4.75;;;;;21.70;100874.00;;;;2071227;28;20213;-47
2021/11/08 02:23:53;;;;;;;7.00;4.40;;;;;21.70;100873.00;;;;2075249;28;20224;-46
2021/11/08 02:24:54;;;;;;;7.20;4.40;;;;;21.70;100883.00;;;;2078227;28;20590;-46
2021/11/08 02:25:59;;;;;;;7.00;5.17;;;;;21.70;100882.00;;;;2078676;28;20681;-47
2021/11/08 02:27:00;;;;;;;9.07;5.68;;;;;21.70;100874.00;;;;2075283;28;20213;-48
2021/11/08 02:28:00;;;;;;;8.87;5.23;;;;;21.70;100889.00;;;;2070948;28;20221;-47
2021/11/08 02:29:00;;;;;;;9.10;5.20;;;;;21.70;100887.00;;;;2069879;28;21003;-47
2021/11/08 02:30:01;;;;;;;8.27;5.17;;;;;21.70;100883.00;;;;2070407;28;20218;-47
2021/11/08 02:31:01;;;;;;;9.13;4.87;;;;;21.70;100890.00;;;;2070720;28;20218;-47
2021/11/08 02:32:04;;;;;;;9.27;5.40;;;;;21.70;100891.00;;;;2070862;28;20636;-48
2021/11/08 02:33:07;;;;;;;8.43;4.32;;;;;21.70;100898.00;;;;2070622;28;20590;-47
2021/11/08 02:34:08;;;;;;;7.60;4.78;;;;;21.70;100894.00;;;;2070356;28;20304;-48
2021/11/08 02:35:11;;;;;;;11.37;5.43;;;;;21.70;100891.00;;;;2070807;28;20214;-47
2021/11/08 02:36:11;;;;;;;8.10;4.97;;;;;21.70;100891.00;;;;2070787;28;20277;-46
2021/11/08 02:37:12;;;;;;;9.93;5.10;;;;;21.70;100895.00;;;;2075482;28;20300;-50
2021/11/08 02:38:37;;;;;;;8.30;5.40;;;;;21.70;100890.00;;;;2078940;28;20453;-47
2021/11/08 02:39:38;;;;;;;7.03;4.90;;;;;21.70;100890.00;;;;2077799;28;20225;-48
2021/11/08 02:40:38;;;;;;;7.20;4.90;;;;;21.70;100899.00;;;;2078847;28;20226;-48
2021/11/08 02:41:39;;;;;;;5.93;4.37;;;;;21.70;100895.00;;;;2079092;28;20217;-48
2021/11/08 02:42:39;;;;;;;7.10;4.60;;;;;21.70;100885.00;;;;2079044;28;20224;-47
2021/11/08 02:43:40;;;;;;;9.97;5.40;;;;;21.70;100878.00;;;;2079081;28;20214;-48
2021/11/08 02:44:40;;;;;;;8.17;4.60;;;;;21.70;100882.00;;;;2079092;28;20264;-47
2021/11/08 02:45:40;;;;;;;7.90;4.77;;;;;21.70;100888.00;;;;2079038;28;20220;-47
2021/11/08 02:46:42;;;;;;;7.33;4.50;;;;;21.70;100881.00;;;;2078841;28;20695;-47
2021/11/08 02:47:43;;;;;;;6.40;4.53;;;;;21.70;100883.00;;;;2078803;28;20218;-48
2021/11/08 02:48:45;;;;;;;8.07;5.05;;;;;21.70;100886.00;;;;2078526;28;20213;-47
2021/11/08 02:49:48;;;;;;;6.72;4.90;;;;;21.70;100886.00;;;;2078825;28;20218;-47
2021/11/08 02:50:55;;;;;;;6.22;4.85;;;;;21.70;100882.00;;;;2079038;28;20225;-48
2021/11/08 02:52:04;;;;;;;9.27;5.22;;;;;21.70;100877.00;;;;2078972;28;20214;-47
2021/11/08 02:53:05;;;;;;;6.55;4.95;;;;;21.70;100887.00;;;;2079216;28;20637;-47
2021/11/08 02:54:13;;;;;;;7.77;4.87;;;;;21.70;100894.00;;;;2078925;28;20228;-47
2021/11/08 02:55:15;;;;;;;8.63;4.90;;;;;21.60;100884.00;;;;2078505;28;20289;-46
2021/11/08 02:56:16;;;;;;;10.18;4.70;;;;;21.60;100892.00;;;;2078954;28;20694;-47
2021/11/08 02:57:18;;;;;;;9.20;5.10;;;;;21.60;100879.00;;;;2073602;28;20246;-48
2021/11/08 02:58:19;;;;;;;8.75;4.90;;;;;21.60;100884.00;;;;2071118;28;20280;-46
2021/11/08 02:59:20;;;;;;;8.35;5.15;;;;;21.60;100880.00;;;;2069834;28;20210;-48
2021/11/08 03:00:21;;;;;;;9.17;5.80;;;;;21.60;100886.00;;;;2070636;28;20225;-49
2021/11/08 03:01:22;;;;;;;9.00;5.03;;;;;21.60;100884.00;;;;2070757;28;20222;-47
2021/11/08 03:02:23;;;;;;;8.27;4.90;;;;;21.60;100888.00;;;;2070782;28;20446;-47
2021/11/08 03:03:32;;;;;;;8.57;5.23;;;;;21.60;100889.00;;;;2070566;28;20271;-46
2021/11/08 03:04:40;;;;;;;8.63;4.95;;;;;21.60;100890.00;;;;2070689;28;20288;-48
2021/11/08 03:05:41;;;;;;;7.40;4.75;;;;;21.60;100899.00;;;;2070381;28;20214;-47
2021/11/08 03:06:42;;;;;;;6.30;4.68;;;;;21.60;100888.00;;;;2070644;28;20241;-48
2021/11/08 03:07:42;;;;;;;8.00;4.80;;;;;21.60;100883.00;;;;2075177;28;20217;-47
2021/11/08 03:08:43;;;;;;;7.73;4.70;;;;;21.60;100893.00;;;;2077205;28;20757;-48
2021/11/08 03:09:53;;;;;;;8.70;5.57;;;;;21.60;100893.00;;;;2078228;28;20224;-47
2021/11/08 03:10:56;;;;;;;8.90;4.90;;;;;21.60;100887.00;;;;2078880;28;20224;-46
2021/11/08 03:11:58;;;;;;;13.25;5.03;;;;;21.60;100895.00;;;;2078681;28;20260;-47
2021/11/08 03:13:05;;;;;;;8.77;4.85;;;;;21.60;100895.00;;;;2078680;28;20217;-46
2021/11/08 03:14:08;;;;;;;8.30;5.10;;;;;21.60;100898.00;;;;2077914;28;20570;-47
2021/11/08 03:15:11;;;;;;;9.77;5.55;;;;;21.60;100907.00;;;;2078247;28;20590;-47
2021/11/08 03:16:55;;;;;;;10.52;4.82;;;;;21.60;100901.00;;;;2077814;28;20239;-49
2021/11/08 03:17:39;;;;;;;6.60;4.75;;;;;21.60;100900.00;;;;2075212;28;20217;-46
2021/11/08 03:18:43;;;;;;;9.10;5.40;;;;;21.60;100904.00;;;;2078829;28;20288;-48
2021/11/08 03:19:44;;;;;;;8.07;4.88;;;;;21.60;100899.00;;;;2077767;28;20678;-47
2021/11/08 03:20:45;;;;;;;8.15;4.80;;;;;21.60;100901.00;;;;2078891;28;20701;-48
2021/11/08 03:21:50;;;;;;;8.63;4.87;;;;;21.60;100898.00;;;;2078711;28;20212;-48
2021/11/08 03:22:57;;;;;;;7.35;5.07;;;;;21.60;100899.00;;;;2078660;28;20697;-48
2021/11/08 03:24:00;;;;;;;6.47;5.00;;;;;21.60;100896.00;;;;2075108;28;20213;-48
2021/11/08 03:28:38;;;;;;;7.50;5.10;;;;;21.60;100896.00;;;;2074561;28;20221;-46
2021/11/08 03:29:38;;;;;;;7.57;5.00;;;;;21.60;100895.00;;;;2069893;28;20212;-47
2021/11/08 03:30:41;;;;;;;7.87;5.20;;;;;21.60;100894.00;;;;2070375;28;20214;-46
2021/11/08 03:31:42;;;;;;;7.63;4.68;;;;;21.60;100896.00;;;;2076871;28;20248;-48
2021/11/08 03:32:44;;;;;;;7.53;4.80;;;;;21.60;100887.00;;;;2077319;28;20282;-47
2021/11/08 03:33:46;;;;;;;9.45;5.28;;;;;21.60;100902.00;;;;2071119;28;20217;-47
2021/11/08 03:35:58;;;;;;;7.68;4.72;;;;;21.60;100904.00;;;;2070580;28;20564;-48
2021/11/08 03:36:58;;;;;;;8.05;5.13;;;;;21.50;100890.00;;;;2070632;28;20224;-46
2021/11/08 03:37:59;;;;;;;8.93;5.03;;;;;21.50;100904.00;;;;2070577;28;20214;-47
2021/11/08 03:39:00;;;;;;;7.60;5.10;;;;;21.50;100907.00;;;;2076861;28;20749;-48
2021/11/08 03:40:00;;;;;;;5.93;4.53;;;;;21.50;100896.00;;;;2078659;28;20243;-47
2021/11/08 03:41:00;;;;;;;7.80;5.57;;;;;21.50;100897.00;;;;2078544;28;20225;-46
2021/11/08 03:42:01;;;;;;;7.20;4.67;;;;;21.50;100902.00;;;;2078814;28;20851;-47
2021/11/08 03:43:04;;;;;;;9.37;5.13;;;;;21.50;100898.00;;;;2078740;28;20209;-48
2021/11/08 03:44:04;;;;;;;6.07;4.57;;;;;21.50;100898.00;;;;2078321;28;20217;-48
2021/11/08 03:45:05;;;;;;;8.70;5.57;;;;;21.50;100904.00;;;;2078762;28;20220;-47
2021/11/08 03:46:06;;;;;;;6.53;4.28;;;;;21.50;100902.00;;;;2078709;28;20222;-47
2021/11/08 03:47:06;;;;;;;8.27;4.67;;;;;21.50;100909.00;;;;2078786;28;20201;-47
2021/11/08 03:48:07;;;;;;;6.97;4.07;;;;;21.50;100904.00;;;;2076680;28;20724;-47
2021/11/08 03:49:08;;;;;;;9.17;5.10;;;;;21.50;100911.00;;;;2077157;28;20674;-48
2021/11/08 03:50:09;;;;;;;6.43;4.43;;;;;21.50;100913.00;;;;2078827;28;20467;-48
2021/11/08 03:51:09;;;;;;;6.30;4.40;;;;;21.50;100915.00;;;;2078731;28;20217;-47
2021/11/08 03:52:09;;;;;;;7.47;4.77;;;;;21.50;100911.00;;;;2078444;28;20369;-47
2021/11/08 03:53:10;;;;;;;7.20;4.50;;;;;21.50;100917.00;;;;2078324;28;20267;-49
2021/11/08 03:54:10;;;;;;;7.13;4.70;;;;;21.50;100918.00;;;;2074854;28;20217;-48
2021/11/08 03:55:11;;;;;;;7.80;5.30;;;;;21.50;100921.00;;;;2071771;28;20292;-47
2021/11/08 03:56:12;;;;;;;9.93;5.72;;;;;21.50;100920.00;;;;2071367;28;20214;-47
2021/11/08 03:57:12;;;;;;;7.13;5.03;;;;;21.50;100923.00;;;;2070520;28;20677;-48
2021/11/08 03:58:12;;;;;;;7.20;4.60;;;;;21.50;100915.00;;;;2070398;28;20293;-47
2021/11/08 03:59:13;;;;;;;7.67;4.93;;;;;21.50;100924.00;;;;2069750;28;20260;-47
2021/11/08 04:00:14;;;;;;;7.17;4.93;;;;;21.50;100916.00;;;;2070396;28;20229;-48
2021/11/08 04:01:14;;;;;;;8.45;4.93;;;;;21.40;100914.00;;;;2070411;28;20289;-47
2021/11/08 04:02:15;;;;;;;9.40;5.07;;;;;21.50;100925.00;;;;2070469;28;20288;-47
2021/11/08 04:03:16;;;;;;;6.87;5.23;;;;;21.50;100920.00;;;;2070292;28;20257;-46
2021/11/08 04:04:16;;;;;;;8.20;5.17;;;;;21.40;100922.00;;;;2070188;28;20206;-47
2021/11/08 04:05:16;;;;;;;7.73;4.60;;;;;21.40;100917.00;;;;2074637;28;20558;-46
2021/11/08 04:06:17;;;;;;;6.90;4.53;;;;;21.50;100925.00;;;;2072641;28;20216;-48
2021/11/08 04:07:17;;;;;;;11.60;5.50;;;;;21.50;100918.00;;;;2084769;28;20304;-48
2021/11/08 04:08:20;;;;;;;8.27;5.10;;;;;21.50;100917.00;;;;2074104;28;20226;-47
2021/11/08 04:09:21;;;;;;;8.80;5.18;;;;;21.50;100929.00;;;;2069061;28;20210;-48
2021/11/08 04:10:22;;;;;;;8.70;5.53;;;;;21.40;100926.00;;;;2070580;28;20249;-47
2021/11/08 04:11:23;;;;;;;9.13;5.10;;;;;21.50;100929.00;;;;2070319;28;20210;-47
2021/11/08 04:12:24;;;;;;;8.10;5.73;;;;;21.40;100925.00;;;;2069753;28;20210;-48
2021/11/08 04:13:29;;;;;;;7.70;5.03;;;;;21.40;100930.00;;;;2069483;28;20697;-46
2021/11/08 04:14:30;;;;;;;7.60;4.90;;;;;21.40;100919.00;;;;2069705;28;20268;-48
2021/11/08 04:15:37;;;;;;;9.17;5.00;;;;;21.40;100928.00;;;;2069709;28;20202;-46
2021/11/08 04:16:39;;;;;;;8.57;5.22;;;;;21.50;100926.00;;;;2069617;28;20217;-47
2021/11/08 04:17:44;;;;;;;9.57;5.63;;;;;21.40;100930.00;;;;2069881;28;22299;-47
2021/11/08 04:18:52;;;;;;;7.32;5.07;;;;;21.40;100926.00;;;;2068900;28;20631;-46
2021/11/08 04:19:53;;;;;;;7.93;5.13;;;;;21.40;100928.00;;;;2070730;28;20217;-48
2021/11/08 04:20:54;;;;;;;6.03;4.80;;;;;21.40;100927.00;;;;2071568;28;20214;-48
2021/11/08 04:21:57;;;;;;;7.10;5.05;;;;;21.40;100924.00;;;;2071431;28;20245;-47
2021/11/08 04:22:57;;;;;;;6.35;4.50;;;;;21.40;100922.00;;;;2071775;28;20210;-48
2021/11/08 04:23:58;;;;;;;8.93;4.83;;;;;21.40;100924.00;;;;2074453;28;20554;-46
2021/11/08 04:24:59;;;;;;;7.97;5.07;;;;;21.40;100923.00;;;;2072562;28;20209;-45
2021/11/08 04:26:01;;;;;;;6.43;4.65;;;;;21.40;100924.00;;;;2071887;28;20221;-48
2021/11/08 04:27:02;;;;;;;9.68;5.57;;;;;21.40;100924.00;;;;2071787;28;20210;-48
2021/11/08 04:28:02;;;;;;;9.63;5.60;;;;;21.40;100929.00;;;;2071646;28;20206;-46
2021/11/08 04:29:04;;;;;;;6.87;5.37;;;;;21.40;100925.00;;;;2070877;28;20293;-45
2021/11/08 04:30:06;;;;;;;8.02;4.68;;;;;21.40;100927.00;;;;2071183;28;20225;-46
2021/11/08 04:31:08;;;;;;;8.60;4.90;;;;;21.40;100930.00;;;;2071504;28;20210;-47
2021/11/08 04:32:09;;;;;;;9.05;5.35;;;;;21.40;100930.00;;;;2071917;28;20614;-48
2021/11/08 04:34:26;;;;;;;8.38;5.50;;;;;21.40;100931.00;;;;2071916;28;20210;-49
2021/11/08 04:40:22;;;;;;;8.40;4.87;;;;;21.40;100921.00;;;;2077665;28;20209;-48
2021/11/08 04:41:52;;;;;;;11.40;5.47;;;;;21.40;100920.00;;;;2079814;28;20259;-51
2021/11/08 04:46:02;;;;;;;8.88;5.40;;;;;21.40;100929.00;;;;2073986;28;20210;-47
2021/11/08 04:51:59;;;;;;;8.38;4.93;;;;;21.30;100933.00;;;;2079603;28;20682;-48
2021/11/08 04:53:23;;;;;;;9.23;5.60;;;;;21.40;100925.00;;;;2079828;28;20260;-46
2021/11/08 05:22:38;;;;;;;8.88;5.68;;;;;21.30;100943.00;;;;2070490;28;20211;-47
2021/11/08 05:25:12;;;;;;;6.82;4.63;;;;;21.30;100951.00;;;;2072516;28;20210;-46
2021/11/08 05:30:10;;;;;;;8.88;5.13;;;;;21.20;100958.00;;;;2070595;28;20881;-48
2021/11/08 05:31:10;;;;;;;8.57;5.53;;;;;21.20;100961.00;;;;2070154;28;20214;-50
2021/11/08 05:32:11;;;;;;;6.50;4.33;;;;;21.20;100956.00;;;;2070516;28;20257;-49
2021/11/08 05:33:12;;;;;;;9.47;4.90;;;;;21.20;100955.00;;;;2070575;28;20329;-49
2021/11/08 05:34:12;;;;;;;8.80;5.20;;;;;21.30;100955.00;;;;2070043;28;20221;-50
2021/11/08 05:35:13;;;;;;;6.80;4.50;;;;;21.20;100951.00;;;;2070712;28;20210;-48
2021/11/08 05:36:15;;;;;;;7.90;5.40;;;;;21.30;100963.00;;;;2070867;28;20206;-48
2021/11/08 05:37:15;;;;;;;7.90;4.90;;;;;21.20;100965.00;;;;2070800;28;20229;-46
2021/11/08 05:38:16;;;;;;;7.90;4.70;;;;;21.20;100967.00;;;;2074903;28;20211;-47
2021/11/08 05:39:16;;;;;;;7.37;5.17;;;;;21.20;100964.00;;;;2073724;28;20198;-46
2021/11/08 05:40:27;;;;;;;7.27;4.60;;;;;21.30;100967.00;;;;2071571;28;20210;-46
2021/11/08 05:41:27;;;;;;;6.25;4.75;;;;;21.20;100962.00;;;;2076197;28;20233;-46
2021/11/08 05:42:28;;;;;;;8.10;4.93;;;;;21.20;100964.00;;;;2079674;28;20239;-48
2021/11/08 05:43:28;;;;;;;7.70;4.90;;;;;21.20;100965.00;;;;2079714;28;20220;-48
2021/11/08 05:44:29;;;;;;;8.13;5.03;;;;;21.20;100963.00;;;;2079570;28;20320;-47
2021/11/08 05:45:33;;;;;;;7.53;4.60;;;;;21.20;100964.00;;;;2079538;28;20214;-47
2021/11/08 05:46:34;;;;;;;7.38;4.95;;;;;21.20;100962.00;;;;2079175;28;20455;-47
2021/11/08 05:47:36;;;;;;;8.50;5.10;;;;;21.20;100969.00;;;;2079617;28;20283;-47
2021/11/08 05:48:37;;;;;;;7.03;4.80;;;;;21.20;100967.00;;;;2079235;28;20226;-47
2021/11/08 05:49:37;;;;;;;6.67;4.80;;;;;21.20;100967.00;;;;2078584;28;20272;-47
2021/11/08 05:50:39;;;;;;;9.67;5.00;;;;;21.20;100970.00;;;;2079629;28;20216;-46
2021/11/08 05:51:40;;;;;;;6.82;4.85;;;;;21.20;100967.00;;;;2079567;28;20213;-47
2021/11/08 05:52:41;;;;;;;7.57;4.60;;;;;21.20;100966.00;;;;2078381;28;20220;-49
2021/11/08 05:53:43;;;;;;;9.30;4.57;;;;;21.20;100966.00;;;;2070867;28;20222;-47
2021/11/08 05:54:44;;;;;;;8.43;4.90;;;;;21.20;100977.00;;;;2078790;28;20213;-47
2021/11/08 05:56:03;;;;;;;6.03;4.57;;;;;21.20;100969.00;;;;2078808;28;20248;-46
2021/11/08 05:57:53;;;;;;;7.80;4.97;;;;;21.20;100966.00;;;;2078707;28;20217;-47
2021/11/08 06:50:03;;;;;;;6.03;3.80;;;;;21.50;101014.00;;;;2073118;28;20242;-49
2021/11/08 06:51:03;;;;;;;9.27;5.10;;;;;21.50;101010.00;;;;2070210;28;20271;-46
2021/11/08 06:52:05;;;;;;;9.00;4.93;;;;;21.50;101014.00;;;;2069939;28;20838;-48